Time;durP1;ratioP1;P1;durP2;ratioP2;P2;SDS_P1;SDS_P2;PMS_P1;PMS_P2;Temp;Humidity;BMP_temperature;BMP_pressure;BME280_temperature;BME280_humidity;BME280_pressure;Samples;Min_cycle;Max_cycle;Signal;HPM_P1;HPM_P2
2022/03/13 00:00:35;;;;;;;21.75;14.25;;;5.20;99.90;;;;;;6319034;22;20049;-91
2022/03/13 00:03:06;;;;;;;19.95;13.75;;;5.20;99.90;;;;;;6343808;22;20397;-89
2022/03/13 00:05:35;;;;;;;18.95;13.88;;;5.10;99.90;;;;;;6317172;22;20061;-88
2022/03/13 00:08:02;;;;;;;19.80;14.00;;;5.20;99.90;;;;;;6317500;22;20462;-92
2022/03/13 00:10:30;;;;;;;21.10;14.63;;;5.10;99.90;;;;;;6319018;22;20054;-92
2022/03/13 00:12:55;;;;;;;20.02;13.77;;;5.10;99.90;;;;;;6317642;22;20018;-91
2022/03/13 00:15:31;;;;;;;21.37;14.87;;;5.00;99.90;;;;;;6343542;22;20110;-90
2022/03/13 00:17:59;;;;;;;18.40;13.57;;;5.00;99.90;;;;;;6313689;22;20014;-93
2022/03/13 00:20:27;;;;;;;19.70;13.77;;;5.10;99.90;;;;;;6317347;22;20023;-89
2022/03/13 00:22:54;;;;;;;18.17;14.32;;;5.10;99.90;;;;;;6343958;22;20026;-89
2022/03/13 00:25:20;;;;;;;20.60;14.38;;;5.10;99.90;;;;;;6318920;22;20022;-91
2022/03/13 00:27:47;;;;;;;18.27;13.63;;;5.10;99.90;;;;;;6343802;22;20022;-92
2022/03/13 00:30:15;;;;;;;21.08;15.05;;;5.10;99.90;;;;;;6319941;22;20037;-92
2022/03/13 00:32:41;;;;;;;19.52;13.93;;;5.00;99.90;;;;;;6319605;22;20018;-90
2022/03/13 00:35:07;;;;;;;20.27;14.00;;;4.90;99.90;;;;;;6345052;22;20402;-91
2022/03/13 00:37:33;;;;;;;20.70;14.77;;;5.00;99.90;;;;;;6317711;22;20006;-89
2022/03/13 00:40:17;;;;;;;;;;;;;;;;;;;;;
2022/03/13 00:42:56;;;;;;;19.35;14.02;;;4.90;99.90;;;;;;6337512;22;20054;-93
2022/03/13 00:45:21;;;;;;;18.37;13.57;;;4.80;99.90;;;;;;6336415;22;20470;-90
2022/03/13 00:48:35;;;;;;;19.73;12.63;;;4.90;99.90;;;;;;6324019;22;20050;-92
2022/03/13 00:50:46;;;;;;;18.85;13.18;;;4.80;99.90;;;;;;6328375;22;20026;-92
2022/03/13 00:53:13;;;;;;;18.63;13.55;;;4.80;99.90;;;;;;6347545;22;20022;-88
2022/03/13 00:55:39;;;;;;;19.02;13.02;;;4.80;99.90;;;;;;6324201;22;20111;-88
2022/03/13 00:58:05;;;;;;;20.70;14.10;;;4.80;99.90;;;;;;6345437;22;20455;-88
2022/03/13 01:00:31;;;;;;;19.97;13.73;;;4.90;99.90;;;;;;6343328;22;20101;-88
2022/03/13 01:02:57;;;;;;;20.53;14.70;;;4.80;99.90;;;;;;6343136;22;20022;-94
2022/03/13 01:05:24;;;;;;;19.87;14.37;;;4.80;99.90;;;;;;6318362;22;20029;-89
2022/03/13 01:07:54;;;;;;;19.17;14.23;;;4.80;99.90;;;;;;6345291;22;20060;-95
2022/03/13 01:10:20;;;;;;;21.83;14.20;;;4.80;99.90;;;;;;6343694;22;20048;-87
2022/03/13 01:12:48;;;;;;;21.83;14.57;;;4.80;99.90;;;;;;6371215;22;20018;-90
2022/03/13 01:15:15;;;;;;;21.60;14.98;;;4.80;99.90;;;;;;6343282;22;20021;-89
2022/03/13 01:17:42;;;;;;;20.05;14.20;;;4.80;99.90;;;;;;6342906;22;20026;-86
2022/03/13 01:20:24;;;;;;;20.13;13.15;;;4.80;99.90;;;;;;6344270;22;20355;-90
2022/03/13 01:22:49;;;;;;;19.88;14.25;;;4.90;99.90;;;;;;6316853;22;20097;-93
2022/03/13 01:25:16;;;;;;;19.70;14.45;;;4.80;99.90;;;;;;6342754;22;20057;-84
2022/03/13 01:27:42;;;;;;;20.85;15.50;;;4.90;99.90;;;;;;6314857;22;20034;-83
2022/03/13 01:30:08;;;;;;;23.60;15.10;;;4.80;99.90;;;;;;6370449;22;20025;-91
2022/03/13 01:32:35;;;;;;;23.15;14.85;;;4.80;99.90;;;;;;6370567;22;20018;-87
2022/03/13 01:35:21;;;;;;;;;;;4.80;99.90;;;;;;6371035;22;20018;-86
2022/03/13 01:37:47;;;;;;;22.08;14.35;;;4.80;99.90;;;;;;6315921;22;19914;-89
2022/03/13 01:40:25;;;;;;;20.27;14.75;;;4.80;99.90;;;;;;6285713;22;20023;-89
2022/03/13 01:42:54;;;;;;;23.00;15.25;;;4.80;99.90;;;;;;6311572;22;20456;-86
2022/03/13 01:45:24;;;;;;;19.73;14.05;;;4.80;99.90;;;;;;6339239;22;20030;-93
2022/03/13 01:47:50;;;;;;;21.52;14.80;;;4.80;99.90;;;;;;6311577;22;20018;-87
2022/03/13 01:50:20;;;;;;;19.77;14.63;;;4.80;99.90;;;;;;6338933;22;20023;-91
2022/03/13 01:52:48;;;;;;;24.05;15.15;;;4.80;99.90;;;;;;6337739;22;20019;-87
2022/03/13 01:55:15;;;;;;;21.40;15.07;;;4.90;99.90;;;;;;6339081;22;20329;-90
2022/03/13 01:57:41;;;;;;;22.40;15.05;;;4.90;99.90;;;;;;6338860;22;20018;-93
2022/03/13 02:05:32;;;;;;;21.30;15.52;;;4.90;99.90;;;;;;6338173;22;20347;-86
2022/03/13 02:08:12;;;;;;;20.85;15.23;;;5.00;99.90;;;;;;6285656;22;20029;-86
2022/03/13 02:10:38;;;;;;;22.42;14.38;;;4.90;99.90;;;;;;6311509;22;20455;-91
2022/03/13 02:13:04;;;;;;;24.25;16.38;;;5.00;99.90;;;;;;6311564;22;20021;-91
2022/03/13 02:15:31;;;;;;;21.43;14.47;;;5.00;99.90;;;;;;6311766;22;20019;-87
2022/03/13 02:18:02;;;;;;;21.23;15.13;;;5.10;99.90;;;;;;6338959;22;20019;-87
2022/03/13 02:20:28;;;;;;;22.08;15.25;;;5.10;99.90;;;;;;6339049;22;20022;-83
2022/03/13 02:23:00;;;;;;;19.60;15.23;;;5.20;99.90;;;;;;6339924;22;20023;-87
2022/03/13 02:25:31;;;;;;;21.17;15.20;;;5.30;99.90;;;;;;6311403;22;20080;-88
2022/03/13 02:27:58;;;;;;;23.27;15.93;;;5.30;99.90;;;;;;6286470;22;20076;-84
2022/03/13 02:30:27;;;;;;;22.83;15.20;;;5.30;99.90;;;;;;6312796;22;20023;-86
2022/03/13 02:32:53;;;;;;;21.60;15.20;;;5.40;99.90;;;;;;6312907;22;20022;-86
2022/03/13 02:35:19;;;;;;;20.83;14.45;;;5.50;99.90;;;;;;6312906;22;20084;-89
2022/03/13 02:37:46;;;;;;;23.00;15.25;;;5.60;99.90;;;;;;6312969;22;20019;-87
2022/03/13 02:40:17;;;;;;;;;;;5.70;99.90;;;;;;6287707;22;20094;-86
2022/03/13 02:42:42;;;;;;;22.85;14.88;;;5.80;99.90;;;;;;6287079;22;19968;-86
2022/03/13 02:45:09;;;;;;;21.47;15.37;;;5.80;99.90;;;;;;6312811;22;20440;-88
2022/03/13 02:47:35;;;;;;;21.63;14.65;;;5.90;99.90;;;;;;6312944;22;20019;-88
2022/03/13 02:50:00;;;;;;;20.07;14.60;;;6.00;99.90;;;;;;6340268;22;20443;-84
2022/03/13 02:52:26;;;;;;;24.33;15.17;;;6.00;99.90;;;;;;6312641;22;20297;-84
2022/03/13 02:54:54;;;;;;;21.97;15.27;;;6.10;99.90;;;;;;6313027;22;20054;-89
2022/03/13 02:57:20;;;;;;;19.40;14.30;;;6.10;99.90;;;;;;6340329;22;20019;-83
2022/03/13 02:59:45;;;;;;;21.47;14.83;;;6.10;99.90;;;;;;6340454;22;20336;-83
2022/03/13 03:02:11;;;;;;;20.33;14.33;;;6.20;99.90;;;;;;6313149;22;20352;-83
2022/03/13 03:04:37;;;;;;;20.60;14.80;;;6.20;99.90;;;;;;6339911;22;20019;-84
2022/03/13 03:07:04;;;;;;;22.15;15.55;;;6.20;99.90;;;;;;6312943;22;20023;-88
2022/03/13 03:09:32;;;;;;;20.80;15.25;;;6.30;99.90;;;;;;6340253;22;20022;-83
2022/03/13 03:12:00;;;;;;;21.17;15.20;;;6.20;99.90;;;;;;6312815;22;20023;-85
2022/03/13 03:14:28;;;;;;;19.98;14.55;;;6.30;99.90;;;;;;6312595;22;20033;-86
2022/03/13 03:16:54;;;;;;;21.60;14.93;;;6.30;99.90;;;;;;6340273;22;20026;-89
2022/03/13 03:19:21;;;;;;;20.17;13.80;;;6.30;99.90;;;;;;6340241;22;20015;-88
2022/03/13 03:21:46;;;;;;;21.40;15.27;;;6.30;99.90;;;;;;6340301;22;20025;-89
2022/03/13 03:24:18;;;;;;;21.97;15.10;;;6.30;99.90;;;;;;6340684;22;20343;-88
2022/03/13 03:26:45;;;;;;;19.50;14.45;;;6.30;99.90;;;;;;6340164;22;20014;-87
2022/03/13 03:29:10;;;;;;;19.20;14.55;;;6.30;99.90;;;;;;6340038;22;20011;-88
2022/03/13 03:31:41;;;;;;;23.90;15.53;;;6.30;99.90;;;;;;6340043;22;20026;-85
2022/03/13 03:34:12;;;;;;;21.90;14.93;;;6.20;99.90;;;;;;6286510;22;20019;-87
2022/03/13 03:36:42;;;;;;;20.55;14.55;;;6.20;99.90;;;;;;6340000;22;20505;-84
2022/03/13 03:39:09;;;;;;;22.08;15.57;;;6.20;99.90;;;;;;6339731;22;20098;-89
2022/03/13 03:41:35;;;;;;;21.77;14.55;;;6.20;99.90;;;;;;6339297;22;20321;-89
2022/03/13 03:44:00;;;;;;;21.83;14.43;;;6.20;99.90;;;;;;6312707;22;20033;-85
2022/03/13 03:46:26;;;;;;;22.10;15.00;;;6.20;99.90;;;;;;6312403;22;20014;-86
2022/03/13 03:48:52;;;;;;;21.27;14.93;;;6.10;99.90;;;;;;6312382;22;20347;-85
2022/03/13 03:51:17;;;;;;;20.03;15.20;;;6.10;99.90;;;;;;6312274;22;20054;-86
2022/03/13 03:53:43;;;;;;;20.53;14.93;;;6.00;99.90;;;;;;6286859;22;20075;-85
2022/03/13 03:56:09;;;;;;;19.13;15.10;;;6.00;99.90;;;;;;6312645;22;20021;-88
2022/03/13 03:58:35;;;;;;;20.67;15.10;;;6.00;99.90;;;;;;6312711;22;20023;-87
2022/03/13 04:01:00;;;;;;;24.20;15.53;;;6.00;99.90;;;;;;6340301;22;20452;-88
2022/03/13 04:03:26;;;;;;;22.17;15.53;;;6.00;99.90;;;;;;6339842;22;20050;-85
2022/03/13 04:05:51;;;;;;;22.03;16.27;;;6.00;99.90;;;;;;6340133;22;20019;-89
2022/03/13 04:08:17;;;;;;;21.00;15.27;;;6.00;99.90;;;;;;6286517;22;20448;-87
2022/03/13 04:10:43;;;;;;;21.27;15.33;;;6.00;99.90;;;;;;6339735;22;20022;-88
2022/03/13 04:13:09;;;;;;;19.93;15.23;;;6.00;99.90;;;;;;6339901;22;20015;-85
2022/03/13 04:15:35;;;;;;;19.43;14.80;;;6.00;99.90;;;;;;6340066;22;20023;-86
2022/03/13 04:18:01;;;;;;;19.90;15.00;;;6.00;99.90;;;;;;6312548;22;20014;-85
2022/03/13 04:20:26;;;;;;;22.17;14.67;;;5.90;99.90;;;;;;6312174;22;20470;-85
2022/03/13 04:22:52;;;;;;;23.33;15.63;;;5.90;99.90;;;;;;6312260;22;20015;-92
2022/03/13 04:25:18;;;;;;;24.20;16.13;;;5.90;99.90;;;;;;6339621;22;20101;-85
2022/03/13 04:27:44;;;;;;;19.73;14.77;;;5.80;99.90;;;;;;6312644;22;20057;-86
2022/03/13 04:30:10;;;;;;;22.80;15.07;;;5.70;99.90;;;;;;6339785;22;20018;-88
2022/03/13 04:32:36;;;;;;;22.90;15.25;;;5.50;99.90;;;;;;6338175;22;20084;-84
2022/03/13 04:35:01;;;;;;;20.67;15.73;;;5.40;99.90;;;;;;6312131;22;20011;-85
2022/03/13 04:37:27;;;;;;;19.90;15.00;;;5.30;99.90;;;;;;6339887;22;20033;-84
2022/03/13 04:39:53;;;;;;;19.83;14.57;;;5.10;99.90;;;;;;6339600;22;20015;-86
2022/03/13 04:42:19;;;;;;;23.57;15.17;;;5.10;99.90;;;;;;6286388;22;20054;-92
2022/03/13 04:44:46;;;;;;;21.38;14.48;;;5.00;99.90;;;;;;6286424;22;20036;-91
2022/03/13 04:47:12;;;;;;;20.63;15.80;;;4.90;99.90;;;;;;6339609;22;20026;-86
2022/03/13 04:49:38;;;;;;;20.63;14.90;;;4.90;99.90;;;;;;6311910;22;20340;-84
2022/03/13 04:52:05;;;;;;;19.77;13.83;;;4.80;99.90;;;;;;6311613;22;20019;-86
2022/03/13 04:54:30;;;;;;;23.75;15.75;;;4.80;99.90;;;;;;6339663;22;20014;-93
2022/03/13 04:56:57;;;;;;;19.95;14.48;;;4.70;99.90;;;;;;6286072;22;20019;-87
2022/03/13 04:59:22;;;;;;;22.40;14.85;;;4.70;99.90;;;;;;6339506;22;20014;-90
2022/03/13 05:01:48;;;;;;;21.27;15.47;;;4.70;99.90;;;;;;6339534;22;20106;-86
2022/03/13 05:04:14;;;;;;;20.53;15.13;;;4.60;99.90;;;;;;6339459;22;20022;-87
2022/03/13 05:06:45;;;;;;;21.27;14.97;;;4.50;99.90;;;;;;6339431;22;20022;-85
2022/03/13 05:09:11;;;;;;;21.02;15.55;;;4.50;99.90;;;;;;6339158;22;20021;-85
2022/03/13 05:11:38;;;;;;;23.37;14.83;;;4.40;99.90;;;;;;6339425;22;20040;-85
2022/03/13 05:14:04;;;;;;;21.00;15.57;;;4.30;99.90;;;;;;6339837;22;20459;-87
2022/03/13 05:16:30;;;;;;;25.65;15.10;;;4.30;99.90;;;;;;6339562;22;20019;-89
2022/03/13 05:18:56;;;;;;;20.65;14.90;;;4.20;99.90;;;;;;6312359;22;20023;-83
2022/03/13 05:21:22;;;;;;;20.57;14.10;;;4.20;99.90;;;;;;6339818;22;20055;-86
2022/03/13 05:23:48;;;;;;;22.13;14.38;;;4.20;99.90;;;;;;6312144;22;20444;-88
2022/03/13 05:26:14;;;;;;;21.47;14.80;;;4.30;99.90;;;;;;6339662;22;20029;-90
2022/03/13 05:28:40;;;;;;;20.77;14.27;;;4.30;99.90;;;;;;6339309;22;20398;-91
2022/03/13 05:31:05;;;;;;;21.97;13.93;;;4.40;99.90;;;;;;6311530;22;20030;-85
2022/03/13 05:33:31;;;;;;;19.90;13.70;;;4.40;99.90;;;;;;6311568;22;20019;-85
2022/03/13 05:36:00;;;;;;;22.08;14.32;;;4.50;99.90;;;;;;6339161;22;20019;-86
2022/03/13 05:38:26;;;;;;;20.80;14.13;;;4.50;99.90;;;;;;6312189;22;20344;-87
2022/03/13 05:40:52;;;;;;;19.50;14.48;;;4.50;99.90;;;;;;6285865;22;20033;-87
2022/03/13 05:43:19;;;;;;;20.25;14.23;;;4.50;99.90;;;;;;6285843;22;20018;-85
2022/03/13 05:45:45;;;;;;;18.10;13.25;;;4.60;99.90;;;;;;6339162;22;20034;-88
2022/03/13 05:48:15;;;;;;;21.92;15.25;;;4.60;99.90;;;;;;6339585;22;20018;-89
2022/03/13 05:50:41;;;;;;;20.90;14.48;;;4.60;99.90;;;;;;6309723;22;20015;-90
2022/03/13 05:53:07;;;;;;;20.50;14.20;;;4.60;99.90;;;;;;6311589;22;20026;-86
2022/03/13 05:55:33;;;;;;;20.70;14.17;;;4.60;99.90;;;;;;6311576;22;20029;-90
2022/03/13 05:58:00;;;;;;;20.80;13.80;;;4.60;99.90;;;;;;6311055;22;20050;-85
2022/03/13 06:00:31;;;;;;;22.60;14.88;;;4.60;99.90;;;;;;6311309;22;20050;-86
2022/03/13 06:02:57;;;;;;;20.35;14.18;;;4.60;99.90;;;;;;6311458;22;20033;-86
2022/03/13 06:05:23;;;;;;;22.48;15.18;;;4.60;99.90;;;;;;6340470;22;20075;-88
2022/03/13 06:07:50;;;;;;;19.27;13.53;;;4.60;99.90;;;;;;6313490;22;20098;-85
2022/03/13 06:10:16;;;;;;;18.63;13.35;;;4.60;99.90;;;;;;6340951;22;20021;-84
2022/03/13 06:12:44;;;;;;;21.65;13.55;;;4.60;99.90;;;;;;6313709;22;20324;-91
2022/03/13 06:15:14;;;;;;;19.98;13.52;;;4.60;99.90;;;;;;6340548;22;20349;-87
2022/03/13 06:17:42;;;;;;;20.02;14.15;;;4.60;99.90;;;;;;6313267;22;20038;-88
2022/03/13 06:20:10;;;;;;;18.50;13.30;;;4.70;99.90;;;;;;6340818;22;20377;-84
2022/03/13 06:22:42;;;;;;;17.92;12.27;;;4.80;99.90;;;;;;6313233;22;20019;-87
2022/03/13 06:25:09;;;;;;;19.85;12.65;;;4.90;99.90;;;;;;6340691;22;20023;-86
2022/03/13 06:27:36;;;;;;;22.20;13.07;;;5.00;99.90;;;;;;6339126;22;20015;-84
2022/03/13 06:30:08;;;;;;;17.88;13.07;;;5.10;99.90;;;;;;6340693;22;20058;-89
2022/03/13 06:32:34;;;;;;;18.73;12.85;;;5.20;99.90;;;;;;6313237;22;20447;-87
2022/03/13 06:35:00;;;;;;;17.52;12.95;;;5.20;99.90;;;;;;6313183;22;20473;-84
2022/03/13 06:37:26;;;;;;;18.27;12.80;;;5.30;99.90;;;;;;6340867;22;20097;-86
2022/03/13 06:39:51;;;;;;;18.40;13.37;;;5.30;99.90;;;;;;6341025;22;20097;-85
2022/03/13 06:42:18;;;;;;;18.60;12.87;;;5.30;99.90;;;;;;6340973;22;20381;-85
2022/03/13 06:44:44;;;;;;;;;;;5.40;99.90;;;;;;6313191;22;20038;-87
2022/03/13 06:47:10;;;;;;;19.58;13.48;;;5.40;99.90;;;;;;6340939;22;19915;-85
2022/03/13 06:49:35;;;;;;;17.53;13.10;;;5.30;99.90;;;;;;6287307;22;20098;-84
2022/03/13 06:52:01;;;;;;;17.43;12.37;;;5.30;99.90;;;;;;6312831;22;20080;-87
2022/03/13 06:54:27;;;;;;;18.33;12.82;;;5.20;99.90;;;;;;6340540;22;20023;-86
2022/03/13 06:56:53;;;;;;;17.13;12.87;;;5.20;99.90;;;;;;6340211;22;20027;-84
2022/03/13 06:59:19;;;;;;;20.80;13.90;;;5.20;99.90;;;;;;6340319;22;20027;-85
2022/03/13 07:01:45;;;;;;;17.53;13.20;;;5.10;99.90;;;;;;6312860;22;20033;-89
2022/03/13 07:04:12;;;;;;;18.27;12.83;;;5.10;99.90;;;;;;6339956;22;20022;-88
2022/03/13 07:06:38;;;;;;;18.80;13.38;;;5.00;99.90;;;;;;6311144;22;20042;-85
2022/03/13 07:09:04;;;;;;;20.25;13.70;;;5.00;99.90;;;;;;6284264;22;20521;-88
2022/03/13 07:11:32;;;;;;;19.58;13.23;;;5.00;99.90;;;;;;6309967;22;20023;-90
2022/03/13 07:13:59;;;;;;;20.60;13.95;;;4.90;99.90;;;;;;6310553;22;20053;-85
2022/03/13 07:16:25;;;;;;;23.30;13.45;;;4.90;99.90;;;;;;6310079;22;20094;-86
2022/03/13 07:19:03;;;;;;;18.10;12.83;;;4.90;99.90;;;;;;6310957;22;20529;-87
2022/03/13 07:21:29;;;;;;;18.38;13.13;;;5.00;99.90;;;;;;6311462;22;20389;-85
2022/03/13 07:23:55;;;;;;;20.30;13.90;;;4.90;99.90;;;;;;6312917;22;20076;-87
2022/03/13 07:26:21;;;;;;;19.43;13.27;;;4.90;99.90;;;;;;6312719;22;20023;-93
2022/03/13 07:28:46;;;;;;;20.43;12.77;;;4.90;99.90;;;;;;6339753;22;20029;-87
2022/03/13 07:31:12;;;;;;;18.87;14.20;;;4.90;99.90;;;;;;6339694;22;20030;-84
2022/03/13 07:33:37;;;;;;;19.23;12.47;;;4.80;99.90;;;;;;6339918;22;20018;-89
2022/03/13 07:36:03;;;;;;;17.63;12.57;;;4.80;99.90;;;;;;6312323;22;20382;-85
2022/03/13 07:38:29;;;;;;;21.70;14.13;;;4.90;99.90;;;;;;6339806;22;20019;-89
2022/03/13 07:40:55;;;;;;;18.48;13.55;;;4.90;99.90;;;;;;6312514;22;20037;-87
2022/03/13 07:43:21;;;;;;;16.80;12.57;;;4.90;99.90;;;;;;6339956;22;20054;-89
2022/03/13 07:45:47;;;;;;;20.60;13.40;;;5.00;99.90;;;;;;6339735;22;20017;-87
2022/03/13 07:48:13;;;;;;;20.03;13.60;;;5.00;99.90;;;;;;6339357;22;20093;-86
2022/03/13 07:50:39;;;;;;;18.87;13.37;;;5.10;99.90;;;;;;6339396;22;20026;-86
2022/03/13 07:53:04;;;;;;;19.00;13.50;;;5.20;99.90;;;;;;6339577;22;20083;-91
2022/03/13 07:55:30;;;;;;;18.50;13.53;;;5.30;99.90;;;;;;6286530;22;20060;-89
2022/03/13 07:57:56;;;;;;;17.67;12.93;;;5.40;99.90;;;;;;6312707;22;20097;-90
2022/03/13 08:00:28;;;;;;;18.47;13.63;;;5.40;99.90;;;;;;6339868;22;20014;-87
2022/03/13 08:02:54;;;;;;;19.45;13.52;;;5.60;99.90;;;;;;6286022;22;20101;-84
2022/03/13 08:05:23;;;;;;;19.83;13.03;;;5.70;99.90;;;;;;6339339;22;20057;-84
2022/03/13 08:07:49;;;;;;;16.60;12.38;;;5.80;99.90;;;;;;6338796;22;20023;-82
2022/03/13 08:10:23;;;;;;;17.52;12.65;;;5.90;99.90;;;;;;6308954;22;20019;-83
2022/03/13 08:12:50;;;;;;;20.75;13.07;;;6.00;99.90;;;;;;6311772;22;20045;-85
2022/03/13 08:15:16;;;;;;;18.55;12.50;;;6.20;99.90;;;;;;6312122;22;20333;-83
2022/03/13 08:17:43;;;;;;;17.20;11.30;;;6.30;99.90;;;;;;6311928;22;20076;-87
2022/03/13 08:20:10;;;;;;;17.33;11.55;;;6.60;99.90;;;;;;6285748;22;20343;-87
2022/03/13 08:22:37;;;;;;;18.35;11.85;;;6.70;99.90;;;;;;6311653;22;20367;-86
2022/03/13 08:25:02;;;;;;;;;;;6.80;99.90;;;;;;6286156;22;20018;-90
2022/03/13 08:27:34;;;;;;;16.08;10.85;;;6.90;99.90;;;;;;6285177;22;19910;-88
2022/03/13 08:30:10;;;;;;;18.65;12.48;;;7.00;99.90;;;;;;6312075;22;20025;-88
2022/03/13 08:32:41;;;;;;;17.75;11.05;;;7.10;99.90;;;;;;6311671;22;20027;-88
2022/03/13 08:35:08;;;;;;;16.90;11.98;;;7.20;99.90;;;;;;6286773;22;20033;-88
2022/03/13 08:37:34;;;;;;;16.98;11.27;;;7.30;99.90;;;;;;6311473;22;20033;-88
2022/03/13 08:40:01;;;;;;;16.33;11.63;;;7.40;99.90;;;;;;6312098;22;20048;-90
2022/03/13 08:42:27;;;;;;;15.73;10.75;;;7.40;99.90;;;;;;6312158;22;20025;-90
2022/03/13 08:44:53;;;;;;;16.58;11.43;;;7.50;99.90;;;;;;6339565;22;20042;-89
2022/03/13 08:47:19;;;;;;;15.87;11.27;;;7.50;99.90;;;;;;6311749;22;20049;-89
2022/03/13 08:49:44;;;;;;;15.77;11.23;;;7.50;99.90;;;;;;6311762;22;20019;-86
2022/03/13 08:52:10;;;;;;;16.80;11.35;;;7.50;99.90;;;;;;6311769;22;20027;-88
2022/03/13 08:54:36;;;;;;;16.30;11.60;;;7.60;99.90;;;;;;6339849;22;20015;-87
2022/03/13 08:57:02;;;;;;;15.17;11.10;;;7.60;99.90;;;;;;6311923;22;20375;-89
2022/03/13 08:59:29;;;;;;;16.15;11.00;;;7.70;99.90;;;;;;6339432;22;20029;-87
2022/03/13 09:01:54;;;;;;;15.15;10.93;;;7.70;99.90;;;;;;6339159;22;20042;-88
2022/03/13 09:04:21;;;;;;;16.63;11.20;;;7.80;99.90;;;;;;6285233;22;20019;-87
2022/03/13 09:06:49;;;;;;;15.73;11.38;;;7.90;99.90;;;;;;6338941;22;20526;-87
2022/03/13 09:09:15;;;;;;;15.60;11.05;;;8.00;99.90;;;;;;6285759;22;20015;-92
2022/03/13 09:11:41;;;;;;;15.47;10.83;;;8.10;99.90;;;;;;6311140;22;20034;-86
2022/03/13 09:14:06;;;;;;;14.80;10.23;;;8.20;99.90;;;;;;6338722;22;20051;-87
2022/03/13 09:16:39;;;;;;;16.43;10.80;;;8.40;99.50;;;;;;6338791;22;20018;-88
2022/03/13 09:19:05;;;;;;;14.50;10.02;;;8.50;98.40;;;;;;6339038;22;20042;-86
2022/03/13 09:21:32;;;;;;;15.52;10.68;;;8.50;97.80;;;;;;6311480;22;20050;-89
2022/03/13 09:23:57;;;;;;;;;;;8.50;97.30;;;;;;6311621;22;20040;-87
2022/03/13 09:26:23;;;;;;;17.20;10.95;;;8.60;97.50;;;;;;6339176;22;19914;-90
2022/03/13 09:28:49;;;;;;;18.03;10.50;;;8.60;96.60;;;;;;6339178;22;20048;-89
2022/03/13 09:31:14;;;;;;;14.80;10.53;;;8.70;96.10;;;;;;6310787;22;20050;-88
2022/03/13 09:33:41;;;;;;;16.83;10.90;;;8.70;96.00;;;;;;6311295;22;20067;-90
2022/03/13 09:36:06;;;;;;;17.95;10.50;;;8.90;95.70;;;;;;6338961;22;20068;-88
2022/03/13 09:38:32;;;;;;;14.80;10.53;;;9.00;95.10;;;;;;6340205;22;20058;-90
2022/03/13 09:40:58;;;;;;;17.53;10.77;;;9.10;94.60;;;;;;6287713;22;20398;-89
2022/03/13 09:43:23;;;;;;;15.47;9.97;;;9.20;94.40;;;;;;6340747;22;20053;-88
2022/03/13 09:45:49;;;;;;;15.47;10.60;;;9.40;93.90;;;;;;6313540;22;20019;-90
2022/03/13 09:48:18;;;;;;;14.67;10.83;;;9.50;92.50;;;;;;6287350;22;20344;-90
2022/03/13 09:50:44;;;;;;;14.95;10.65;;;9.60;92.30;;;;;;6340533;22;20273;-90
2022/03/13 09:53:11;;;;;;;15.10;10.80;;;9.70;92.30;;;;;;6313012;22;20026;-87
2022/03/13 09:55:37;;;;;;;16.02;10.75;;;9.80;92.10;;;;;;6313061;22;20022;-89
2022/03/13 09:58:06;;;;;;;14.75;10.40;;;9.90;91.50;;;;;;6287597;22;20345;-91
2022/03/13 10:00:31;;;;;;;17.75;10.82;;;10.00;91.20;;;;;;6313276;22;20022;-91
2022/03/13 10:02:57;;;;;;;15.18;11.07;;;10.20;91.20;;;;;;6313445;22;20023;-88
2022/03/13 10:05:27;;;;;;;15.37;10.60;;;10.30;90.90;;;;;;6314666;22;20022;-96
2022/03/13 10:08:00;;;;;;;15.50;10.25;;;10.50;89.80;;;;;;6312232;22;20019;-93
2022/03/13 10:10:59;;;;;;;15.30;9.90;;;10.60;88.60;;;;;;6314073;22;20093;-88
2022/03/13 10:13:43;;;;;;;15.80;10.30;;;10.80;87.30;;;;;;6259208;22;20016;-90
2022/03/13 10:16:16;;;;;;;16.48;10.57;;;10.90;84.70;;;;;;6287248;22;20447;-86
2022/03/13 10:18:41;;;;;;;17.05;11.23;;;11.00;84.60;;;;;;6288146;22;20022;-87
2022/03/13 10:21:10;;;;;;;17.13;11.40;;;11.20;83.20;;;;;;6313294;22;20018;-88
2022/03/13 10:23:36;;;;;;;13.63;9.82;;;11.30;82.80;;;;;;6335889;22;20084;-88
2022/03/13 10:26:04;;;;;;;18.73;11.35;;;11.40;82.10;;;;;;6313236;22;20019;-89
2022/03/13 10:28:35;;;;;;;15.50;10.98;;;11.50;80.80;;;;;;6287679;22;20021;-90
2022/03/13 10:31:01;;;;;;;13.95;9.93;;;11.70;79.50;;;;;;6287871;22;20019;-89
2022/03/13 10:33:42;;;;;;;16.53;10.77;;;11.70;78.70;;;;;;6334353;22;20094;-93
2022/03/13 10:36:17;;;;;;;14.00;10.18;;;11.80;78.50;;;;;;6345137;22;20023;-88
2022/03/13 10:38:45;;;;;;;15.57;10.82;;;11.90;78.00;;;;;;6319425;22;20046;-96
2022/03/13 10:41:15;;;;;;;14.68;10.88;;;12.10;77.40;;;;;;6342105;22;20014;-90
2022/03/13 10:44:14;;;;;;;14.80;10.90;;;12.20;77.50;;;;;;6297828;22;20018;-86
2022/03/13 10:49:30;;;;;;;14.77;10.60;;;12.40;76.10;;;;;;6307202;22;20019;-89
2022/03/13 10:51:57;;;;;;;15.45;10.77;;;12.40;75.20;;;;;;6309495;22;20027;-85
2022/03/13 10:54:32;;;;;;;16.67;10.57;;;12.40;75.00;;;;;;6310448;22;20027;-92
2022/03/13 10:57:10;;;;;;;15.77;11.30;;;12.50;75.30;;;;;;6282020;22;20153;-89
2022/03/13 10:59:37;;;;;;;17.17;10.93;;;12.70;75.00;;;;;;6282146;22;20308;-88
2022/03/13 11:02:16;;;;;;;15.65;10.77;;;12.80;74.10;;;;;;6306940;22;20050;-91
2022/03/13 11:04:49;;;;;;;15.60;10.55;;;13.00;74.30;;;;;;6255976;22;20507;-92
2022/03/13 11:07:16;;;;;;;240.57;36.80;;;13.10;72.60;;;;;;6309005;22;20019;-95
2022/03/13 11:09:42;;;;;;;19.58;11.80;;;13.10;72.50;;;;;;6257608;22;20520;-91
2022/03/13 11:12:12;;;;;;;22.65;11.52;;;13.20;72.30;;;;;;6311525;22;20075;-96
2022/03/13 11:14:40;;;;;;;14.13;10.43;;;13.20;72.10;;;;;;6311502;22;20022;-91
2022/03/13 11:17:07;;;;;;;17.02;11.18;;;13.30;71.70;;;;;;6309236;22;20023;-93
2022/03/13 11:19:36;;;;;;;14.60;10.70;;;13.30;70.30;;;;;;6282266;22;20023;-92
2022/03/13 11:22:02;;;;;;;16.85;11.18;;;13.30;69.90;;;;;;6307080;22;20019;-91
2022/03/13 11:24:29;;;;;;;15.80;10.65;;;13.30;69.00;;;;;;6303477;22;20027;-92
2022/03/13 11:26:56;;;;;;;16.65;11.50;;;13.30;69.70;;;;;;6304614;22;20138;-89
2022/03/13 11:29:40;;;;;;;;;;;13.40;69.10;;;;;;6307624;22;20019;-91
2022/03/13 11:32:36;;;;;;;16.38;11.00;;;13.50;70.00;;;;;;6308167;22;19925;-92
2022/03/13 11:35:13;;;;;;;15.95;11.18;;;13.70;68.20;;;;;;6286032;22;20365;-89
2022/03/13 11:37:41;;;;;;;15.07;10.57;;;13.70;67.60;;;;;;6308809;22;20023;-89
2022/03/13 11:42:52;;;;;;;15.50;10.50;;;13.90;67.20;;;;;;6366539;22;20075;-91
2022/03/13 11:45:36;;;;;;;15.75;11.18;;;14.00;66.80;;;;;;6357985;22;20019;-90
2022/03/13 11:48:22;;;;;;;14.23;10.32;;;14.10;66.90;;;;;;6352034;22;20020;-86
2022/03/13 11:50:52;;;;;;;15.30;10.95;;;14.20;66.10;;;;;;6344078;22;20018;-91
2022/03/13 11:53:20;;;;;;;15.27;10.75;;;14.20;64.20;;;;;;6343257;22;20021;-89
2022/03/13 11:56:03;;;;;;;15.73;11.27;;;14.20;65.80;;;;;;6343616;22;20029;-88
2022/03/13 11:58:38;;;;;;;15.15;11.10;;;14.20;67.10;;;;;;6317166;22;20023;-89
2022/03/13 12:01:08;;;;;;;16.17;11.18;;;14.20;66.70;;;;;;6342389;22;20045;-89
2022/03/13 12:03:34;;;;;;;15.25;10.77;;;14.20;66.80;;;;;;6316152;22;20486;-90
2022/03/13 12:06:00;;;;;;;19.40;11.80;;;14.10;67.20;;;;;;6343821;22;20014;-90
2022/03/13 12:09:06;;;;;;;18.13;11.13;;;14.10;67.40;;;;;;6343384;22;20021;-92
2022/03/13 12:11:38;;;;;;;15.77;10.38;;;14.10;67.10;;;;;;6346309;22;20033;-88
2022/03/13 12:14:09;;;;;;;16.00;12.18;;;14.10;66.50;;;;;;6342908;22;20018;-90
2022/03/13 12:16:39;;;;;;;15.63;11.55;;;14.00;66.20;;;;;;6343128;22;20022;-86
2022/03/13 12:19:05;;;;;;;17.00;11.38;;;14.10;65.80;;;;;;6316667;22;20015;-88
2022/03/13 12:21:32;;;;;;;15.23;11.00;;;14.00;66.30;;;;;;6343023;22;20018;-89
2022/03/13 12:24:18;;;;;;;16.08;11.75;;;14.00;67.20;;;;;;6343167;22;20340;-89
2022/03/13 12:26:46;;;;;;;18.52;11.13;;;14.00;66.40;;;;;;6316903;22;20018;-87
2022/03/13 12:29:20;;;;;;;17.63;10.50;;;14.00;65.10;;;;;;6343332;22;20455;-88
2022/03/13 12:31:51;;;;;;;17.67;11.50;;;13.90;65.50;;;;;;6316789;22;20029;-87
2022/03/13 12:34:44;;;;;;;15.57;11.13;;;13.90;64.80;;;;;;6342954;22;20103;-89
2022/03/13 12:37:10;;;;;;;14.93;11.05;;;13.90;64.60;;;;;;6307210;22;20054;-90
2022/03/13 12:40:00;;;;;;;16.50;10.25;;;13.90;65.20;;;;;;6316833;22;20071;-85
2022/03/13 12:42:34;;;;;;;14.13;10.40;;;13.90;64.00;;;;;;6316476;22;20075;-90
2022/03/13 12:45:04;;;;;;;15.45;10.55;;;13.90;64.90;;;;;;6343010;22;20018;-90
2022/03/13 12:47:32;;;;;;;14.75;10.57;;;13.90;64.10;;;;;;6317628;22;20022;-88
2022/03/13 12:49:59;;;;;;;16.42;11.07;;;13.90;64.30;;;;;;6344131;22;20399;-92
2022/03/13 12:52:26;;;;;;;16.92;11.15;;;13.90;65.10;;;;;;6318174;22;20463;-88
2022/03/13 12:55:00;;;;;;;15.45;10.98;;;13.90;64.80;;;;;;6343453;22;20018;-89